createdAt,value
2017-10-07T22:43:09.525Z,1006.53
2017-10-07T22:43:50.051Z,1006.55
2017-10-07T22:44:30.583Z,1006.52
2017-10-07T22:45:11.112Z,1006.55
2017-10-07T22:45:51.630Z,1006.52
2017-10-07T22:46:32.139Z,1006.5
2017-10-07T22:47:12.668Z,1006.51
2017-10-07T22:47:53.214Z,1006.55
2017-10-07T22:48:33.752Z,1006.54
2017-10-07T22:49:14.279Z,1006.54
2017-10-07T22:49:54.812Z,1006.56
2017-10-07T22:50:35.330Z,1006.57
2017-10-07T22:51:15.852Z,1006.53
2017-10-07T22:51:56.382Z,1006.56
2017-10-07T22:52:36.915Z,1006.57
2017-10-07T22:53:17.439Z,1006.58
2017-10-07T22:53:57.969Z,1006.59
2017-10-07T22:54:38.502Z,1006.57
2017-10-07T22:55:19.018Z,1006.55
2017-10-07T22:55:59.547Z,1006.49
2017-10-07T22:56:40.082Z,1006.57
2017-10-07T22:57:20.627Z,1006.58
2017-10-07T22:58:01.173Z,1006.57
2017-10-07T22:58:41.704Z,1006.58
2017-10-07T22:59:22.231Z,1006.53
2017-10-07T23:00:02.763Z,1006.59
2017-10-07T23:00:43.291Z,1006.53
2017-10-07T23:01:23.823Z,1006.52
2017-10-07T23:02:04.357Z,1006.53
2017-10-07T23:02:44.889Z,1006.57
2017-10-07T23:03:25.402Z,1006.55
2017-10-07T23:04:05.944Z,1006.55
2017-10-07T23:04:46.478Z,1006.51
2017-10-07T23:05:27.000Z,1006.57
2017-10-07T23:06:07.528Z,1006.55
2017-10-07T23:06:48.056Z,1006.57
2017-10-07T23:07:28.587Z,1006.61
2017-10-07T23:08:09.124Z,1006.6
2017-10-07T23:08:49.647Z,1006.62
2017-10-07T23:09:30.208Z,1006.65
2017-10-07T23:10:10.733Z,1006.61
2017-10-07T23:10:51.269Z,1006.58
2017-10-07T23:11:31.807Z,1006.66
2017-10-07T23:12:12.332Z,1006.62
2017-10-07T23:12:52.866Z,1006.64
2017-10-07T23:13:33.401Z,1006.63
2017-10-07T23:14:13.932Z,1006.68
2017-10-07T23:14:54.462Z,1006.65
2017-10-07T23:15:34.989Z,1006.74
2017-10-07T23:16:15.533Z,1006.66
2017-10-07T23:16:56.060Z,1006.69
2017-10-07T23:17:36.608Z,1006.72
2017-10-07T23:18:17.127Z,1006.71
2017-10-07T23:18:57.655Z,1006.75
2017-10-07T23:19:38.184Z,1006.74
2017-10-07T23:20:18.708Z,1006.73
2017-10-07T23:20:59.205Z,1006.75
2017-10-07T23:21:39.740Z,1006.76
2017-10-07T23:22:20.265Z,1006.77
2017-10-07T23:23:00.831Z,1006.78
2017-10-07T23:23:41.364Z,1006.75
2017-10-07T23:24:21.917Z,1006.77
2017-10-07T23:25:02.430Z,1006.77
2017-10-07T23:25:42.957Z,1006.77
2017-10-07T23:26:23.494Z,1006.75
2017-10-07T23:27:04.007Z,1006.77
2017-10-07T23:27:44.543Z,1006.77
2017-10-07T23:28:25.060Z,1006.74
2017-10-07T23:29:05.581Z,1006.81
2017-10-07T23:29:46.114Z,1006.78
2017-10-07T23:30:26.630Z,1006.78
2017-10-07T23:31:07.152Z,1006.79
2017-10-07T23:31:47.724Z,1006.78
2017-10-07T23:32:28.269Z,1006.8
2017-10-07T23:33:08.791Z,1006.77
2017-10-07T23:33:49.331Z,1006.78
2017-10-07T23:34:29.849Z,1006.82
2017-10-07T23:35:10.413Z,1006.78
2017-10-07T23:35:50.950Z,1006.77
2017-10-07T23:36:31.479Z,1006.8
2017-10-07T23:37:12.003Z,1006.8
2017-10-07T23:37:52.570Z,1006.74
2017-10-07T23:38:33.107Z,1006.77
2017-10-07T23:39:13.637Z,1006.77
2017-10-07T23:39:54.188Z,1006.8
2017-10-07T23:40:34.724Z,1006.73
2017-10-07T23:41:15.253Z,1006.77
2017-10-07T23:41:55.776Z,1006.77
2017-10-07T23:42:36.306Z,1006.77
2017-10-07T23:43:16.841Z,1006.79
2017-10-07T23:43:57.379Z,1006.76
2017-10-07T23:44:37.906Z,1006.79
2017-10-07T23:45:18.445Z,1006.76
2017-10-07T23:45:58.972Z,1006.78
2017-10-07T23:46:39.509Z,1006.8
2017-10-07T23:47:20.031Z,1006.73
2017-10-07T23:48:00.574Z,1006.76
2017-10-07T23:48:41.103Z,1006.77
2017-10-07T23:49:21.625Z,1006.8
2017-10-07T23:50:02.160Z,1006.78
2017-10-07T23:50:42.694Z,1006.76
2017-10-07T23:51:23.237Z,1006.81
2017-10-07T23:52:03.774Z,1006.81
2017-10-07T23:52:44.300Z,1006.78
2017-10-07T23:53:24.833Z,1006.79
2017-10-07T23:54:05.368Z,1006.79
2017-10-07T23:54:45.908Z,1006.73
2017-10-07T23:55:26.435Z,1006.77
2017-10-07T23:56:06.970Z,1006.78
2017-10-07T23:56:47.498Z,1006.78
2017-10-07T23:57:28.067Z,1006.79
2017-10-07T23:58:08.598Z,1006.82
2017-10-07T23:58:49.113Z,1006.79
2017-10-07T23:59:29.657Z,1006.79
